Time;durP1;ratioP1;P1;durP2;ratioP2;P2;SDS_P1;SDS_P2;PMS_P1;PMS_P2;Temp;Humidity;BMP_temperature;BMP_pressure;BME280_temperature;BME280_humidity;BME280_pressure;Samples;Min_cycle;Max_cycle;Signal;HPM_P1;HPM_P2
2021/12/17 00:01:28;;;;;;;0.30;0.30;;;;;;;4.67;100.00;103194.22;4995225;28;20053;-85
2021/12/17 00:04:04;;;;;;;0.20;0.20;;;;;;;4.65;100.00;103182.78;4986887;28;20475;-85
2021/12/17 00:06:47;;;;;;;0.25;0.25;;;;;;;4.69;100.00;103189.50;4990394;28;20050;-84
2021/12/17 00:09:21;;;;;;;0.20;0.20;;;;;;;4.70;100.00;103183.91;4986967;28;20050;-85
2021/12/17 00:11:49;;;;;;;0.30;0.30;;;;;;;4.73;100.00;103182.72;4991300;28;20056;-84
2021/12/17 00:14:26;;;;;;;0.20;0.20;;;;;;;4.68;100.00;103174.31;4990565;28;20282;-84
2021/12/17 00:17:02;;;;;;;0.30;0.30;;;;;;;4.67;100.00;103170.81;4988807;28;20038;-84
2021/12/17 00:19:55;;;;;;;0.20;0.20;;;;;;;4.57;100.00;103157.56;4983431;28;20046;-85
2021/12/17 00:51:34;;;;;;;0.30;0.30;;;;;;;4.87;100.00;103195.44;4937922;28;20058;-85
2021/12/17 00:54:02;;;;;;;0.20;0.20;;;;;;;4.79;100.00;103187.41;4994469;28;20046;-85
2021/12/17 00:56:31;;;;;;;0.20;0.20;;;;;;;4.90;100.00;103202.34;4989531;28;20403;-85
2021/12/17 00:59:06;;;;;;;0.20;0.20;;;;;;;4.87;100.00;103192.72;5000150;28;20054;-84
2021/12/17 01:01:39;;;;;;;0.20;0.20;;;;;;;4.84;100.00;103185.00;4995910;28;20051;-85
2021/12/17 01:04:09;;;;;;;0.28;0.28;;;;;;;4.89;100.00;103181.78;5001026;28;20061;-84
2021/12/17 01:06:43;;;;;;;0.20;0.20;;;;;;;4.93;100.00;103183.94;5009494;28;20061;-85
2021/12/17 01:09:19;;;;;;;0.30;0.30;;;;;;;4.91;100.00;103185.13;4992465;28;20047;-85
2021/12/17 01:11:55;;;;;;;0.20;0.20;;;;;;;4.92;100.00;103176.84;5001012;28;20061;-85
2021/12/17 01:14:41;;;;;;;0.30;0.30;;;;;;;4.84;100.00;103168.81;5002387;28;20490;-85
2021/12/17 01:17:39;;;;;;;0.20;0.20;;;;;;;4.98;100.00;103169.06;4996948;28;20054;-85
2021/12/17 01:20:48;;;;;;;0.30;0.30;;;;;;;4.94;100.00;103185.63;4993448;28;20093;-85
2021/12/17 01:23:56;;;;;;;0.20;0.20;;;;;;;4.89;100.00;103171.81;4993163;28;20395;-85
2021/12/17 01:36:13;;;;;;;0.22;0.22;;;;;;;5.01;100.00;103203.78;4994698;28;20058;-85
2021/12/17 01:41:57;;;;;;;0.17;0.17;;;;;;;5.02;100.00;103200.06;4994563;28;20050;-85
2021/12/17 01:44:25;;;;;;;0.20;0.20;;;;;;;5.01;100.00;103193.81;4994034;28;20549;-86
2021/12/17 01:46:55;;;;;;;0.20;0.20;;;;;;;4.95;100.00;103175.66;4994245;28;20541;-86
2021/12/17 02:00:54;;;;;;;0.20;0.20;;;;;;;5.05;100.00;103154.63;4995895;28;20042;-84
2021/12/17 02:03:29;;;;;;;0.20;0.20;;;;;;;5.01;100.00;103150.63;4992455;28;20506;-85
2021/12/17 02:05:59;;;;;;;0.20;0.20;;;;;;;5.07;100.00;103146.41;5000444;28;20055;-85
2021/12/17 02:08:33;;;;;;;0.20;0.20;;;;;;;4.97;100.00;103130.41;4993523;28;20062;-85
2021/12/17 02:20:23;;;;;;;0.20;0.20;;;;;;;5.01;100.00;103157.91;4947215;28;20043;-84
2021/12/17 02:23:19;;;;;;;0.20;0.20;;;;;;;5.00;100.00;103143.56;5010773;28;20051;-85
2021/12/17 02:28:46;;;;;;;0.20;0.20;;;;;;;5.06;100.00;103150.09;4992564;28;20050;-85
2021/12/17 02:31:26;;;;;;;0.20;0.20;;;;;;;5.02;100.00;103148.78;4991094;28;20050;-85
2021/12/17 02:34:05;;;;;;;0.20;0.20;;;;;;;5.03;100.00;103147.78;4997104;28;20038;-85
2021/12/17 02:36:40;;;;;;;0.30;0.30;;;;;;;5.02;100.00;103146.09;4988589;28;20050;-84
2021/12/17 02:39:42;;;;;;;0.25;0.25;;;;;;;5.02;100.00;103155.00;4991820;28;20046;-85
2021/12/17 02:48:08;;;;;;;0.20;0.20;;;;;;;5.13;100.00;103153.75;4982398;28;20066;-86
2021/12/17 02:50:44;;;;;;;0.20;0.20;;;;;;;5.09;100.00;103147.03;4990288;28;20502;-86
2021/12/17 02:53:15;;;;;;;0.20;0.20;;;;;;;5.11;100.00;103156.63;4994981;28;20367;-85
2021/12/17 02:55:46;;;;;;;0.20;0.20;;;;;;;5.09;100.00;103161.34;4991097;28;20470;-86
2021/12/17 02:58:22;;;;;;;0.20;0.20;;;;;;;5.13;100.00;103163.72;4994568;28;20034;-86
2021/12/17 03:00:56;;;;;;;0.20;0.20;;;;;;;5.17;100.00;103151.53;4994030;28;20403;-85
2021/12/17 03:03:33;;;;;;;0.25;0.25;;;;;;;5.12;100.00;103149.34;4995801;28;20050;-85
2021/12/17 03:06:00;;;;;;;0.22;0.22;;;;;;;5.14;100.00;103143.78;4993473;28;20046;-85
2021/12/17 03:08:35;;;;;;;0.20;0.20;;;;;;;5.11;100.00;103132.34;4992059;28;20517;-85
2021/12/17 03:11:09;;;;;;;0.30;0.30;;;;;;;5.14;100.00;103136.53;4992044;28;20428;-84
2021/12/17 03:13:44;;;;;;;0.20;0.20;;;;;;;5.17;100.00;103140.72;4991186;28;20526;-86
2021/12/17 03:16:28;;;;;;;0.20;0.20;;;;;;;5.32;100.00;103148.84;4991044;28;20051;-85
2021/12/17 03:19:10;;;;;;;0.20;0.20;;;;;;;5.27;100.00;103155.66;4992131;28;20062;-84
2021/12/17 03:24:36;;;;;;;0.20;0.20;;;;;;;5.18;100.00;103142.38;4991918;28;20046;-84
2021/12/17 03:27:04;;;;;;;0.20;0.20;;;;;;;5.19;100.00;103142.22;4996084;28;20392;-85
2021/12/17 03:29:32;;;;;;;0.15;0.15;;;;;;;5.22;100.00;103139.16;4993637;28;20415;-85
2021/12/17 03:32:08;;;;;;;0.20;0.20;;;;;;;5.17;100.00;103124.53;4991041;28;20058;-84
2021/12/17 03:34:42;;;;;;;0.20;0.20;;;;;;;5.19;100.00;103131.44;4991666;28;20061;-85
2021/12/17 03:37:15;;;;;;;0.30;0.30;;;;;;;5.16;100.00;103122.84;5006492;28;20050;-85
2021/12/17 03:39:50;;;;;;;0.20;0.20;;;;;;;5.28;100.00;103132.19;4991357;28;20514;-85
2021/12/17 03:42:23;;;;;;;0.20;0.20;;;;;;;5.23;100.00;103132.75;4992944;28;20045;-85
2021/12/17 03:44:56;;;;;;;0.30;0.30;;;;;;;5.18;100.00;103131.59;4989309;28;20431;-85
2021/12/17 03:47:47;;;;;;;0.20;0.20;;;;;;;5.17;100.00;103113.75;4985867;28;20057;-85
2021/12/17 03:50:23;;;;;;;0.20;0.20;;;;;;;5.23;100.00;103126.50;4991072;28;20054;-85
2021/12/17 03:52:56;;;;;;;0.30;0.30;;;;;;;5.20;100.00;103108.78;4993732;28;20046;-85
2021/12/17 03:55:31;;;;;;;0.20;0.20;;;;;;;5.19;100.00;103090.09;5011731;28;20050;-84
2021/12/17 03:58:07;;;;;;;0.25;0.25;;;;;;;5.19;100.00;103080.16;5009958;28;20050;-85
2021/12/17 04:00:44;;;;;;;;;;;;;;;5.12;100.00;103087.28;4989595;28;20053;-84
2021/12/17 04:03:17;;;;;;;0.22;0.22;;;;;;;5.13;100.00;103083.56;4991742;28;19922;-85
2021/12/17 04:05:57;;;;;;;0.10;0.10;;;;;;;5.10;100.00;103083.94;4991651;28;20061;-85
2021/12/17 04:08:44;;;;;;;0.20;0.20;;;;;;;5.09;100.00;103101.97;4990558;28;20545;-85
2021/12/17 04:11:35;;;;;;;0.20;0.20;;;;;;;5.07;100.00;103108.59;4986582;28;20483;-85
2021/12/17 04:14:12;;;;;;;0.20;0.20;;;;;;;5.06;100.00;103110.44;4991245;28;20050;-85
2021/12/17 04:17:02;;;;;;;0.30;0.30;;;;;;;5.07;100.00;103109.44;4991461;28;20050;-85
2021/12/17 04:19:30;;;;;;;0.20;0.20;;;;;;;5.15;100.00;103124.72;4991622;28;20050;-85
2021/12/17 04:21:59;;;;;;;0.20;0.20;;;;;;;5.09;100.00;103120.88;4990148;28;20050;-84
2021/12/17 04:24:28;;;;;;;0.20;0.20;;;;;;;5.06;100.00;103126.63;4992204;28;20447;-85
2021/12/17 04:27:02;;;;;;;0.20;0.20;;;;;;;5.07;100.00;103114.00;4992304;28;20065;-85
2021/12/17 04:29:41;;;;;;;0.20;0.20;;;;;;;5.00;100.00;103113.88;4995338;28;20049;-85
2021/12/17 04:32:16;;;;;;;0.30;0.30;;;;;;;5.06;100.00;103117.72;4995404;28;20058;-85
2021/12/17 04:34:50;;;;;;;0.20;0.20;;;;;;;5.03;100.00;103113.50;5027058;28;20046;-85
2021/12/17 04:37:31;;;;;;;0.20;0.20;;;;;;;5.07;100.00;103124.81;4992818;28;20049;-84
2021/12/17 04:40:06;;;;;;;0.25;0.25;;;;;;;5.04;100.00;103125.13;4994319;28;20598;-85
2021/12/17 04:42:57;;;;;;;0.20;0.20;;;;;;;5.01;100.00;103118.25;4996170;28;20648;-86
2021/12/17 04:45:42;;;;;;;0.20;0.20;;;;;;;5.03;100.00;103115.38;5024434;28;20054;-85
2021/12/17 04:59:42;;;;;;;0.20;0.20;;;;;;;5.03;100.00;103113.50;4992941;28;20047;-84
2021/12/17 05:02:10;;;;;;;0.22;0.22;;;;;;;4.99;100.00;103108.69;4997565;28;20384;-85
2021/12/17 05:04:53;;;;;;;0.25;0.25;;;;;;;4.93;100.00;103105.69;4994883;28;20600;-85
2021/12/17 05:07:27;;;;;;;0.20;0.20;;;;;;;4.98;100.00;103112.38;4995110;28;20038;-84
2021/12/17 05:10:08;;;;;;;0.20;0.20;;;;;;;4.91;100.00;103105.00;4992092;28;20050;-86
2021/12/17 05:18:24;;;;;;;0.20;0.20;;;;;;;4.96;100.00;103123.38;4992667;28;20042;-84
2021/12/17 05:21:03;;;;;;;0.20;0.20;;;;;;;4.98;100.00;103117.78;4986225;28;20057;-85
2021/12/17 05:23:45;;;;;;;0.20;0.20;;;;;;;4.92;100.00;103116.66;4991807;28;20058;-85
2021/12/17 05:26:22;;;;;;;0.13;0.13;;;;;;;4.88;100.00;103113.47;4990628;28;20042;-86
2021/12/17 05:28:58;;;;;;;;;;;;;;;4.85;100.00;103110.31;4994714;28;20415;-85
2021/12/17 05:31:38;;;;;;;0.20;0.20;;;;;;;4.81;100.00;103095.50;4990316;28;19922;-85
2021/12/17 05:34:11;;;;;;;0.28;0.28;;;;;;;4.72;100.00;103056.97;4992843;28;20061;-85
2021/12/17 05:36:50;;;;;;;0.10;0.10;;;;;;;4.82;100.00;103076.44;4999638;28;20384;-85
2021/12/17 05:39:24;;;;;;;0.20;0.20;;;;;;;4.75;100.00;103070.06;4991694;28;20500;-85
2021/12/17 05:42:01;;;;;;;0.20;0.20;;;;;;;4.82;100.00;103081.84;4996116;28;20046;-85
2021/12/17 05:44:51;;;;;;;0.20;0.20;;;;;;;4.82;100.00;103094.47;4997264;28;20059;-85
2021/12/17 05:47:25;;;;;;;0.30;0.30;;;;;;;4.76;100.00;103080.72;5011210;28;20045;-84
2021/12/17 05:49:58;;;;;;;0.20;0.20;;;;;;;4.75;100.00;103075.47;4995223;28;20069;-84
2021/12/17 05:52:32;;;;;;;0.20;0.20;;;;;;;4.77;100.00;103074.28;4977414;28;20058;-85
2021/12/17 05:55:06;;;;;;;0.13;0.13;;;;;;;4.74;100.00;103074.63;4990478;28;20050;-84
2021/12/17 05:57:41;;;;;;;0.20;0.20;;;;;;;4.76;100.00;103069.06;5009066;28;20050;-84
2021/12/17 06:00:15;;;;;;;0.20;0.20;;;;;;;4.82;100.00;103091.78;4992138;28;20510;-85
2021/12/17 06:02:50;;;;;;;0.20;0.20;;;;;;;4.80;100.00;103093.81;5000996;28;20399;-85
2021/12/17 06:05:37;;;;;;;0.20;0.20;;;;;;;4.76;100.00;103094.19;4992664;28;20061;-84
2021/12/17 06:08:11;;;;;;;0.20;0.20;;;;;;;4.79;100.00;103111.84;4993496;28;20050;-85
2021/12/17 06:10:45;;;;;;;0.20;0.20;;;;;;;4.70;100.00;103094.06;4992344;28;20050;-84
2021/12/17 06:13:18;;;;;;;0.20;0.20;;;;;;;4.73;100.00;103118.81;4993788;28;20049;-85
2021/12/17 06:15:52;;;;;;;0.20;0.20;;;;;;;4.71;100.00;103117.31;4995145;28;20049;-85
2021/12/17 06:18:29;;;;;;;0.20;0.20;;;;;;;4.72;100.00;103124.41;4993000;28;20049;-85
2021/12/17 06:21:02;;;;;;;0.20;0.20;;;;;;;4.73;100.00;103124.22;4992974;28;20411;-85
2021/12/17 06:23:35;;;;;;;0.20;0.20;;;;;;;4.67;100.00;103124.94;5011781;28;20052;-85
2021/12/17 06:26:09;;;;;;;0.20;0.20;;;;;;;4.68;100.00;103128.47;5010712;28;20057;-85
2021/12/17 06:28:49;;;;;;;0.17;0.17;;;;;;;4.62;100.00;103118.41;4993187;28;20046;-85
2021/12/17 06:31:25;;;;;;;0.20;0.20;;;;;;;4.60;100.00;103126.69;4993324;28;20046;-85
2021/12/17 06:34:00;;;;;;;0.20;0.20;;;;;;;4.59;100.00;103125.00;4993145;28;20050;-85
2021/12/17 06:36:30;;;;;;;0.20;0.20;;;;;;;4.59;100.00;103136.63;4992787;28;20045;-85
2021/12/17 06:38:59;;;;;;;0.20;0.20;;;;;;;4.61;100.00;103136.44;4994776;28;20506;-85
2021/12/17 06:41:38;;;;;;;0.20;0.20;;;;;;;4.59;100.00;103151.97;4992977;28;20042;-85
2021/12/17 06:44:14;;;;;;;0.20;0.20;;;;;;;4.64;100.00;103141.50;4992622;28;20395;-86
2021/12/17 06:46:56;;;;;;;0.20;0.20;;;;;;;4.63;100.00;103139.81;4990965;28;20053;-85
2021/12/17 06:49:47;;;;;;;0.20;0.20;;;;;;;4.61;100.00;103147.22;4992031;28;20050;-85
2021/12/17 06:59:03;;;;;;;0.20;0.20;;;;;;;4.61;100.00;103141.84;4986655;28;20113;-85
2021/12/17 07:12:04;;;;;;;0.20;0.20;;;;;;;4.59;100.00;103160.88;4990451;28;20538;-85
2021/12/17 07:17:36;;;;;;;0.20;0.20;;;;;;;4.69;100.00;103160.66;4991922;28;20094;-85
2021/12/17 07:23:07;;;;;;;0.30;0.30;;;;;;;4.60;100.00;103124.00;5006395;28;20061;-85
2021/12/17 07:34:11;;;;;;;0.20;0.20;;;;;;;4.69;100.00;103159.81;4989349;28;20046;-85
2021/12/17 07:36:56;;;;;;;0.20;0.20;;;;;;;4.68;100.00;103161.69;5023352;28;20046;-85
2021/12/17 07:39:30;;;;;;;0.20;0.20;;;;;;;4.66;100.00;103158.31;4992268;28;20062;-85
2021/12/17 07:42:22;;;;;;;0.20;0.20;;;;;;;4.66;100.00;103162.88;4990561;28;20089;-85
2021/12/17 07:44:55;;;;;;;0.20;0.20;;;;;;;4.77;100.00;103165.16;4993131;28;20069;-85
2021/12/17 07:47:49;;;;;;;0.30;0.30;;;;;;;4.70;100.00;103162.34;5000178;28;20061;-84
2021/12/17 07:50:44;;;;;;;0.30;0.30;;;;;;;4.71;100.00;103171.25;4988905;28;20061;-85
2021/12/17 07:53:31;;;;;;;0.20;0.20;;;;;;;4.77;100.00;103168.69;4989066;28;20384;-85
2021/12/17 07:56:17;;;;;;;0.30;0.30;;;;;;;4.73;100.00;103156.59;4987982;28;20058;-84
2021/12/17 07:58:46;;;;;;;0.28;0.28;;;;;;;4.72;100.00;103162.16;4985800;28;20454;-85
2021/12/17 08:01:14;;;;;;;0.20;0.20;;;;;;;4.73;100.00;103166.53;4973464;28;20042;-85
2021/12/17 08:03:49;;;;;;;0.30;0.30;;;;;;;4.63;100.00;103152.44;4968406;28;20279;-85
2021/12/17 08:06:48;;;;;;;0.28;0.28;;;;;;;4.63;100.00;103160.53;4969613;28;20054;-85
2021/12/17 08:09:28;;;;;;;0.20;0.20;;;;;;;4.54;100.00;103141.72;4969261;28;20407;-85
2021/12/17 08:11:59;;;;;;;0.20;0.20;;;;;;;4.50;100.00;103144.94;4972186;28;20058;-85
2021/12/17 08:14:34;;;;;;;0.20;0.20;;;;;;;4.48;100.00;103158.59;4969628;28;20872;-85
2021/12/17 08:17:27;;;;;;;0.20;0.20;;;;;;;4.59;100.00;103163.59;4967187;28;20054;-84
2021/12/17 08:26:01;;;;;;;0.30;0.30;;;;;;;4.47;100.00;103167.72;4972734;28;20381;-84
2021/12/17 08:31:27;;;;;;;0.28;0.28;;;;;;;4.40;100.00;103164.88;4971502;28;20070;-83
2021/12/17 08:34:02;;;;;;;0.30;0.30;;;;;;;4.31;100.00;103168.66;4975223;28;20538;-85
2021/12/17 08:36:31;;;;;;;0.20;0.20;;;;;;;4.41;100.00;103169.25;4975327;28;20113;-83
2021/12/17 08:39:05;;;;;;;0.30;0.30;;;;;;;4.35;100.00;103156.50;4972215;28;20058;-83
2021/12/17 08:41:44;;;;;;;0.30;0.30;;;;;;;4.35;100.00;103161.03;4976344;28;20534;-85
2021/12/17 08:44:18;;;;;;;0.30;0.30;;;;;;;4.33;100.00;103166.59;4976330;28;20066;-83
2021/12/17 08:47:24;;;;;;;0.20;0.20;;;;;;;4.36;100.00;103168.94;4975222;28;20078;-84
2021/12/17 08:50:04;;;;;;;0.20;0.20;;;;;;;4.42;100.00;103179.03;4975859;28;20396;-83
2021/12/17 08:52:37;;;;;;;0.25;0.25;;;;;;;4.37;100.00;103184.09;4972923;28;20046;-85
2021/12/17 08:55:11;;;;;;;0.20;0.20;;;;;;;4.45;100.00;103185.94;4973648;28;20061;-84
2021/12/17 08:57:41;;;;;;;0.30;0.30;;;;;;;4.45;100.00;103188.63;4972240;28;20058;-82
2021/12/17 09:00:15;;;;;;;0.15;0.15;;;;;;;4.39;100.00;103176.69;4973579;28;20057;-84
2021/12/17 09:02:50;;;;;;;0.20;0.20;;;;;;;4.41;100.00;103196.22;4979099;28;20057;-85
2021/12/17 09:05:47;;;;;;;0.22;0.22;;;;;;;4.42;100.00;103195.22;4995141;28;20058;-83
2021/12/17 09:08:29;;;;;;;0.30;0.30;;;;;;;4.54;100.00;103195.66;4974632;28;20061;-84
2021/12/17 09:11:03;;;;;;;0.30;0.30;;;;;;;4.55;100.00;103204.59;4972142;28;20054;-84
2021/12/17 09:13:50;;;;;;;0.28;0.28;;;;;;;4.41;100.00;103185.44;4976697;28;20058;-83
2021/12/17 09:16:21;;;;;;;0.20;0.20;;;;;;;4.45;100.00;103215.59;4975059;28;20459;-85
2021/12/17 09:18:56;;;;;;;0.20;0.20;;;;;;;4.39;100.00;103218.97;4984215;28;20065;-85
2021/12/17 09:21:38;;;;;;;0.20;0.20;;;;;;;4.39;100.00;103211.75;4981950;28;20600;-83
2021/12/17 09:24:26;;;;;;;0.28;0.28;;;;;;;4.38;100.00;103211.94;4979262;28;20407;-86
2021/12/17 09:27:15;;;;;;;0.30;0.30;;;;;;;4.42;100.00;103207.88;4980344;28;20074;-84
2021/12/17 09:30:11;;;;;;;0.20;0.20;;;;;;;4.44;100.00;103211.22;4981752;28;20054;-84
2021/12/17 09:32:46;;;;;;;0.20;0.20;;;;;;;4.26;100.00;103189.91;4983572;28;20054;-84
2021/12/17 09:35:16;;;;;;;0.20;0.20;;;;;;;4.32;100.00;103204.53;4981079;28;20058;-82
2021/12/17 09:37:44;;;;;;;0.20;0.20;;;;;;;4.26;100.00;103216.84;4984272;28;20054;-85
2021/12/17 09:40:18;;;;;;;0.25;0.25;;;;;;;4.28;100.00;103220.22;4976330;28;22102;-83
2021/12/17 09:42:47;;;;;;;0.22;0.22;;;;;;;4.32;100.00;103218.84;4970226;28;20062;-85
2021/12/17 09:45:20;;;;;;;0.20;0.20;;;;;;;4.42;100.00;103224.88;4978458;28;20072;-84
2021/12/17 09:47:50;;;;;;;0.20;0.20;;;;;;;4.33;100.00;103212.44;4973774;28;20050;-82
2021/12/17 09:50:23;;;;;;;0.30;0.30;;;;;;;4.36;100.00;103203.16;4980065;28;20066;-83
2021/12/17 09:52:53;;;;;;;0.30;0.30;;;;;;;4.55;100.00;103205.41;4976995;28;20390;-83
2021/12/17 09:55:27;;;;;;;0.30;0.30;;;;;;;4.41;100.00;103220.50;4969689;28;20485;-83
2021/12/17 09:57:56;;;;;;;0.20;0.20;;;;;;;4.59;100.00;103220.22;4965531;28;20485;-83
2021/12/17 10:00:29;;;;;;;0.20;0.20;;;;;;;4.57;100.00;103221.41;4971745;28;20085;-85
2021/12/17 10:02:59;;;;;;;0.20;0.20;;;;;;;4.56;100.00;103215.19;4961714;28;20057;-84
2021/12/17 10:05:30;;;;;;;0.30;0.30;;;;;;;4.62;100.00;103221.72;4963041;28;20518;-84
2021/12/17 10:08:00;;;;;;;0.28;0.28;;;;;;;4.69;100.00;103217.31;4969183;28;20463;-84
2021/12/17 10:10:36;;;;;;;0.20;0.20;;;;;;;4.73;100.00;103217.81;4965332;28;20050;-83
2021/12/17 10:13:12;;;;;;;0.20;0.20;;;;;;;4.69;100.00;103211.06;4962195;28;20671;-83
2021/12/17 10:15:48;;;;;;;0.30;0.30;;;;;;;4.60;100.00;103210.28;4968908;28;20811;-83
2021/12/17 10:18:33;;;;;;;0.20;0.20;;;;;;;4.64;100.00;103206.22;4978251;28;20077;-84
2021/12/17 10:21:09;;;;;;;0.20;0.20;;;;;;;4.60;100.00;103200.34;4967768;28;20050;-83
2021/12/17 10:23:43;;;;;;;0.20;0.20;;;;;;;4.68;100.00;103212.94;4962238;28;20847;-85
2021/12/17 10:26:18;;;;;;;0.30;0.30;;;;;;;4.77;100.00;103216.44;4961128;28;20057;-83
2021/12/17 10:28:55;;;;;;;0.20;0.20;;;;;;;4.77;100.00;103229.91;4962432;28;20050;-84
2021/12/17 10:31:30;;;;;;;0.30;0.30;;;;;;;4.80;100.00;103229.56;4968720;28;20054;-83
2021/12/17 10:34:03;;;;;;;0.20;0.20;;;;;;;4.72;100.00;103211.56;4973158;28;20046;-84
2021/12/17 10:36:42;;;;;;;0.20;0.20;;;;;;;4.72;100.00;103226.91;4978290;28;20053;-84
2021/12/17 10:39:21;;;;;;;0.22;0.20;;;;;;;4.56;100.00;103225.16;4963646;28;20525;-83
2021/12/17 10:41:50;;;;;;;0.20;0.20;;;;;;;4.55;100.00;103228.84;4969466;28;20500;-83
2021/12/17 10:44:23;;;;;;;0.28;0.28;;;;;;;4.59;100.00;103212.13;4972002;28;20578;-84
2021/12/17 10:47:13;;;;;;;0.28;0.28;;;;;;;4.64;100.00;103210.75;4965973;28;20053;-84
2021/12/17 10:49:53;;;;;;;0.20;0.20;;;;;;;4.70;100.00;103213.59;4966152;28;20428;-85
2021/12/17 10:52:33;;;;;;;0.20;0.20;;;;;;;4.68;100.00;103212.09;4964797;28;20577;-86
2021/12/17 10:55:08;;;;;;;0.25;0.25;;;;;;;4.62;100.00;103207.41;4970034;28;20046;-84
2021/12/17 10:57:37;;;;;;;0.22;0.22;;;;;;;4.71;100.00;103206.31;4970443;28;20050;-84
2021/12/17 11:00:08;;;;;;;0.30;0.30;;;;;;;4.78;100.00;103207.31;4966881;28;20058;-83
2021/12/17 11:02:49;;;;;;;0.28;0.28;;;;;;;4.86;100.00;103204.56;4966137;28;20058;-83
2021/12/17 11:05:24;;;;;;;0.20;0.20;;;;;;;4.83;100.00;103193.28;4966086;28;20050;-84
2021/12/17 11:07:57;;;;;;;0.30;0.30;;;;;;;4.73;100.00;103201.63;4964660;28;20054;-85
2021/12/17 11:10:31;;;;;;;0.30;0.30;;;;;;;4.73;100.00;103215.94;4969668;28;20410;-83
2021/12/17 11:13:00;;;;;;;0.20;0.20;;;;;;;4.88;100.00;103207.91;4974316;28;20061;-84
2021/12/17 11:15:33;;;;;;;0.20;0.20;;;;;;;4.97;100.00;103195.19;4973415;28;20046;-84
2021/12/17 11:18:06;;;;;;;0.20;0.20;;;;;;;4.91;100.00;103207.53;4972747;28;20054;-84
2021/12/17 11:20:41;;;;;;;0.20;0.20;;;;;;;4.83;100.00;103193.28;4974211;28;20248;-86
2021/12/17 11:23:16;;;;;;;0.20;0.20;;;;;;;4.82;100.00;103192.47;4966735;28;21837;-85
2021/12/17 11:25:53;;;;;;;0.20;0.20;;;;;;;4.85;100.00;103183.16;4972287;28;20302;-85
2021/12/17 11:28:26;;;;;;;0.30;0.30;;;;;;;4.93;100.00;103170.44;4965934;28;20046;-84
2021/12/17 11:30:55;;;;;;;0.30;0.30;;;;;;;4.97;100.00;103181.69;4974680;28;20053;-85
2021/12/17 11:33:23;;;;;;;0.20;0.20;;;;;;;5.00;100.00;103181.34;4972214;28;20054;-83
2021/12/17 11:35:58;;;;;;;0.20;0.20;;;;;;;4.89;100.00;103171.81;4967103;28;20057;-85
2021/12/17 11:38:40;;;;;;;0.20;0.20;;;;;;;4.90;100.00;103170.81;4963931;28;20467;-85
2021/12/17 11:41:14;;;;;;;0.28;0.28;;;;;;;4.95;100.00;103186.44;4971599;28;20050;-85
2021/12/17 11:43:53;;;;;;;0.25;0.20;;;;;;;4.97;100.00;103170.91;4965063;28;20050;-84
2021/12/17 11:46:29;;;;;;;0.20;0.20;;;;;;;5.02;100.00;103171.22;4975101;28;20054;-83
2021/12/17 11:49:04;;;;;;;0.30;0.30;;;;;;;5.03;100.00;103162.09;4964763;28;20050;-83
2021/12/17 11:51:39;;;;;;;0.20;0.20;;;;;;;5.09;100.00;103174.03;4964448;28;20058;-84
2021/12/17 11:54:18;;;;;;;0.20;0.20;;;;;;;5.12;100.00;103168.25;4966670;28;20057;-84
2021/12/17 11:56:54;;;;;;;0.20;0.20;;;;;;;5.05;100.00;103173.53;4969315;28;20660;-84
2021/12/17 11:59:39;;;;;;;0.20;0.20;;;;;;;4.98;100.00;103183.38;4963741;28;20069;-84
2021/12/17 12:02:15;;;;;;;0.20;0.20;;;;;;;5.02;100.00;103194.66;4960380;28;20061;-85
2021/12/17 12:04:46;;;;;;;0.20;0.20;;;;;;;5.06;100.00;103201.38;4960921;28;20069;-85
2021/12/17 12:07:17;;;;;;;0.20;0.20;;;;;;;5.05;100.00;103202.41;4962252;28;20051;-84
2021/12/17 12:10:00;;;;;;;0.30;0.30;;;;;;;5.04;100.00;103201.56;4969248;28;20080;-84
2021/12/17 12:12:55;;;;;;;0.30;0.30;;;;;;;5.08;100.00;103202.03;4964629;28;20046;-84
2021/12/17 12:15:31;;;;;;;0.20;0.20;;;;;;;4.84;100.00;103201.19;4968366;28;20065;-84
2021/12/17 12:18:19;;;;;;;0.20;0.20;;;;;;;4.79;100.00;103184.69;4963584;28;20058;-84
2021/12/17 12:20:58;;;;;;;0.20;0.20;;;;;;;4.90;100.00;103203.19;4967584;28;20049;-84
2021/12/17 12:23:42;;;;;;;0.20;0.20;;;;;;;4.81;100.00;103208.81;4966286;28;20700;-84
2021/12/17 12:26:27;;;;;;;0.30;0.30;;;;;;;4.86;100.00;103203.72;4971145;28;20050;-84
2021/12/17 12:29:05;;;;;;;0.20;0.20;;;;;;;4.86;100.00;103211.81;4967375;28;20057;-84
2021/12/17 12:31:55;;;;;;;0.30;0.30;;;;;;;4.86;100.00;103206.41;4963713;28;20061;-83
2021/12/17 12:34:37;;;;;;;0.20;0.20;;;;;;;4.72;100.00;103198.09;4965105;28;20069;-84
2021/12/17 12:37:18;;;;;;;0.20;0.20;;;;;;;4.91;100.00;103204.03;4967673;28;20055;-84
2021/12/17 12:40:22;;;;;;;0.20;0.20;;;;;;;4.74;100.00;103203.31;4969237;28;20054;-83
2021/12/17 12:42:57;;;;;;;0.20;0.20;;;;;;;4.74;100.00;103196.03;4952976;28;20054;-84
2021/12/17 12:45:32;;;;;;;0.20;0.20;;;;;;;4.84;100.00;103193.09;4975107;28;20058;-82
2021/12/17 12:48:01;;;;;;;0.20;0.20;;;;;;;4.86;100.00;103195.63;4974853;28;20050;-83
2021/12/17 12:50:35;;;;;;;0.20;0.20;;;;;;;4.80;100.00;103191.78;4975751;28;20796;-82
2021/12/17 12:53:11;;;;;;;0.20;0.20;;;;;;;4.81;100.00;103195.34;4974942;28;20054;-82
2021/12/17 12:55:48;;;;;;;0.20;0.20;;;;;;;4.74;100.00;103179.84;4977275;28;20058;-83
2021/12/17 12:58:27;;;;;;;;;;;;;;;4.73;100.00;103188.13;4976124;28;20050;-84
2021/12/17 13:01:02;;;;;;;0.20;0.20;;;;;;;4.69;100.00;103187.63;4974674;28;19929;-83
2021/12/17 13:03:37;;;;;;;0.20;0.20;;;;;;;4.75;100.00;103183.38;4979408;28;20046;-84
2021/12/17 13:06:06;;;;;;;0.20;0.20;;;;;;;4.80;100.00;103164.78;4976691;28;22029;-85
2021/12/17 13:08:39;;;;;;;0.20;0.20;;;;;;;4.78;100.00;103164.16;4977114;28;20061;-84
2021/12/17 13:11:09;;;;;;;0.20;0.20;;;;;;;4.79;100.00;103162.28;4976691;28;20058;-84
2021/12/17 13:13:42;;;;;;;0.25;0.25;;;;;;;4.74;100.00;103158.25;4993399;28;20062;-84
2021/12/17 13:16:16;;;;;;;0.20;0.20;;;;;;;4.71;100.00;103161.34;4979096;28;20050;-84
2021/12/17 13:21:45;;;;;;;0.20;0.20;;;;;;;4.85;100.00;103156.19;4971356;28;20062;-84
2021/12/17 13:24:23;;;;;;;0.20;0.20;;;;;;;4.92;100.00;103166.06;4970999;28;20514;-84
2021/12/17 13:26:56;;;;;;;0.20;0.20;;;;;;;4.88;100.00;103170.13;4970761;28;20057;-84
2021/12/17 13:29:30;;;;;;;0.20;0.20;;;;;;;4.91;100.00;103161.66;4966582;28;20061;-85
2021/12/17 13:32:04;;;;;;;0.20;0.20;;;;;;;4.92;100.00;103163.34;4970714;28;20065;-85
2021/12/17 13:34:35;;;;;;;0.20;0.20;;;;;;;4.86;100.00;103147.03;4972724;28;20422;-85
2021/12/17 13:37:10;;;;;;;0.20;0.20;;;;;;;4.88;100.00;103131.53;4975333;28;20054;-85
2021/12/17 13:39:43;;;;;;;0.20;0.20;;;;;;;4.97;100.00;103152.00;4976870;28;20055;-84
2021/12/17 13:42:18;;;;;;;;;;;;;;;4.89;100.00;103147.53;4966987;28;20704;-84
2021/12/17 13:44:53;;;;;;;0.20;0.20;;;;;;;5.03;100.00;103147.78;4972461;28;19929;-84
2021/12/17 13:47:29;;;;;;;0.20;0.20;;;;;;;4.92;100.00;103144.47;4969643;28;20109;-84
2021/12/17 13:50:01;;;;;;;0.20;0.20;;;;;;;4.97;100.00;103154.72;5013899;28;20057;-85
2021/12/17 13:52:37;;;;;;;0.20;0.20;;;;;;;4.96;100.00;103160.28;4971430;28;20034;-85
2021/12/17 13:55:14;;;;;;;0.20;0.20;;;;;;;5.05;100.00;103153.81;4972617;28;20054;-84
2021/12/17 13:57:49;;;;;;;0.20;0.20;;;;;;;5.08;100.00;103167.81;4968796;28;20062;-84
2021/12/17 14:00:20;;;;;;;0.20;0.20;;;;;;;5.10;100.00;103164.91;4970697;28;20681;-84
2021/12/17 14:02:55;;;;;;;0.13;0.13;;;;;;;5.06;100.00;103167.13;4973464;28;20541;-84
2021/12/17 14:05:40;;;;;;;0.20;0.20;;;;;;;4.94;100.00;103157.78;4969381;28;20065;-83
2021/12/17 14:08:15;;;;;;;0.20;0.20;;;;;;;5.02;100.00;103170.38;4969961;28;20073;-84
2021/12/17 14:10:51;;;;;;;0.20;0.20;;;;;;;5.03;100.00;103177.47;4971086;28;20054;-84
2021/12/17 14:13:27;;;;;;;0.20;0.20;;;;;;;5.01;100.00;103166.00;4972450;28;20157;-84
2021/12/17 14:16:02;;;;;;;0.20;0.20;;;;;;;5.05;100.00;103165.44;4968975;28;20050;-84
2021/12/17 14:18:35;;;;;;;0.20;0.20;;;;;;;5.00;100.00;103161.59;4967855;28;20055;-83
2021/12/17 14:21:08;;;;;;;0.30;0.30;;;;;;;5.00;100.00;103158.91;4972142;28;20042;-83
2021/12/17 14:23:42;;;;;;;0.20;0.20;;;;;;;5.00;100.00;103157.06;4973810;28;20050;-85
2021/12/17 14:26:15;;;;;;;0.20;0.20;;;;;;;5.00;100.00;103164.31;4967474;28;20256;-84